»·PEaware :: N5002T KSBA-KSBA

N5002T :: KSBA-KSBA

FLIGHT INFORMATION

Flight Status: Arrived
Operator: Privately registered:
United States
More flights under this callsign
Pilot: Hunter M. (19355)
Aircraft: CESSNA 172 SKYHAWK
(C172)
More flights by this aircraft type
Origin: KSBA Santa Barbara Mun
United States
Destination: KSBA Santa Barbara Mun
United States
More flights between these airports :: More routes between these airports
Route: +GVO
File this flight plan on PilotEdge
Remarks: Practice approaches
Altitude:
(Current/Filed)
3,000ft
Speed:
(Current/Filed)
118kts
Departed: 25-Jul-19 11:48 AM
Arrived: 25-Jul-19 01:18 PM
Distance/Time
Traveled:
0nm/1:30
Distance/Time
To Go:
Arrived

Flight Plot

Page will automatically refresh every two minutes.


Map Options




Map Legend


Flown Route
Filed Route
Departure Airport
Arrival Airport
Navaid (VOR, NDB)
Fix

Horizontal Profiles

Position Reports

Time Latitude Longitude Heading Altitude Ground
Speed
25-Jul-19 11:33 34.431450 -119.832377 357 13ft 0kts
25-Jul-19 11:34 34.431450 -119.832377 357 13ft 0kts
25-Jul-19 11:35 34.431450 -119.832377 357 13ft 0kts
25-Jul-19 11:35 34.431450 -119.832377 357 13ft 0kts
25-Jul-19 11:37 34.431450 -119.832377 357 13ft 0kts
25-Jul-19 11:38 34.431450 -119.832377 357 13ft 0kts
25-Jul-19 11:38 34.431450 -119.832377 357 13ft 0kts
25-Jul-19 11:39 34.431450 -119.832377 357 13ft 0kts
25-Jul-19 11:40 34.431450 -119.832377 357 13ft 0kts
25-Jul-19 11:41 34.431450 -119.832377 357 13ft 0kts
25-Jul-19 11:42 34.430776 -119.832017 154 13ft 4kts
25-Jul-19 11:43 34.429099 -119.832430 262 13ft 1kts
25-Jul-19 11:44 34.428882 -119.835223 195 13ft 7kts
25-Jul-19 11:45 34.428840 -119.835231 182 13ft 0kts
25-Jul-19 11:46 34.427878 -119.835485 265 13ft 0kts
25-Jul-19 11:47 34.427366 -119.858342 261 407ft 92kts
25-Jul-19 11:48 34.424017 -119.890993 261 1175ft 102kts
25-Jul-19 11:49 34.409138 -119.908722 153 1902ft 94kts
25-Jul-19 11:50 34.384207 -119.895960 153 2602ft 99kts
25-Jul-19 11:51 34.359338 -119.878543 114 3025ft 116kts
25-Jul-19 11:52 34.346500 -119.842709 111 2995ft 113kts
25-Jul-19 11:53 34.334833 -119.810878 111 2993ft 98kts
25-Jul-19 11:54 34.323814 -119.780864 111 3001ft 97kts
25-Jul-19 11:55 34.312755 -119.750597 111 2971ft 100kts
25-Jul-19 11:56 34.301343 -119.720683 111 3003ft 98kts
25-Jul-19 11:57 34.290328 -119.690336 109 2989ft 98kts
25-Jul-19 11:58 34.281537 -119.658984 105 2975ft 98kts
25-Jul-19 11:59 34.269394 -119.629570 113 3007ft 97kts
25-Jul-19 12:00 34.257452 -119.600117 115 2994ft 100kts
25-Jul-19 12:01 34.245101 -119.569934 110 2972ft 98kts
25-Jul-19 12:02 34.234057 -119.539467 116 2969ft 99kts
25-Jul-19 12:03 34.226675 -119.510290 41 3009ft 87kts
25-Jul-19 12:04 34.249664 -119.502648 331 2952ft 84kts
25-Jul-19 12:05 34.270766 -119.513324 348 2966ft 84kts
25-Jul-19 12:06 34.294988 -119.511379 10 2920ft 92kts
25-Jul-19 12:07 34.313452 -119.520457 294 2948ft 85kts
25-Jul-19 12:08 34.320911 -119.546011 286 2685ft 78kts
25-Jul-19 12:09 34.325954 -119.572090 277 2321ft 79kts
25-Jul-19 12:10 34.334941 -119.599389 285 2042ft 91kts
25-Jul-19 12:11 34.345865 -119.625464 296 2154ft 85kts
25-Jul-19 12:12 34.355588 -119.651613 287 2186ft 84kts
25-Jul-19 12:13 34.364591 -119.678079 289 2209ft 85kts
25-Jul-19 12:14 34.374111 -119.704356 289 2098ft 86kts
25-Jul-19 12:15 34.383879 -119.730952 290 1942ft 86kts
25-Jul-19 12:16 34.394603 -119.757949 291 1178ft 92kts
25-Jul-19 12:17 34.405309 -119.785942 296 704ft 86kts
25-Jul-19 12:18 34.417552 -119.809053 311 536ft 81kts
25-Jul-19 12:19 34.427988 -119.832144 262 119ft 84kts
25-Jul-19 12:20 34.422219 -119.857760 221 568ft 86kts
25-Jul-19 12:21 34.403981 -119.878202 221 1420ft 93kts
25-Jul-19 12:22 34.383691 -119.898596 210 2265ft 91kts
25-Jul-19 12:23 34.363350 -119.915198 216 3088ft 86kts
25-Jul-19 12:24 34.342301 -119.916200 137 3814ft 92kts
25-Jul-19 12:25 34.321319 -119.893998 138 4007ft 106kts
25-Jul-19 12:26 34.299101 -119.870389 138 4000ft 106kts
25-Jul-19 12:27 34.276386 -119.847758 143 4002ft 106kts
25-Jul-19 12:28 34.256897 -119.823619 65 3991ft 99kts
25-Jul-19 12:29 34.273417 -119.834554 287 4008ft 90kts
25-Jul-19 12:30 34.284296 -119.859741 318 4015ft 88kts
25-Jul-19 12:31 34.284875 -119.843638 137 4024ft 104kts
25-Jul-19 12:32 34.261971 -119.821396 182 3987ft 104kts
25-Jul-19 12:33 34.267651 -119.841804 317 4010ft 88kts
25-Jul-19 12:34 34.286068 -119.861852 328 3996ft 89kts
25-Jul-19 12:35 34.281921 -119.841051 137 4017ft 105kts
25-Jul-19 12:36 34.259967 -119.816860 137 3998ft 106kts
25-Jul-19 12:37 34.254449 -119.827683 317 4023ft 86kts
25-Jul-19 12:38 34.272621 -119.847940 317 3998ft 88kts
25-Jul-19 12:39 34.288038 -119.848832 118 3998ft 103kts
25-Jul-19 12:40 34.266729 -119.824757 136 4000ft 106kts
25-Jul-19 12:41 34.254418 -119.828041 317 4031ft 84kts
25-Jul-19 12:42 34.272340 -119.848241 316 3998ft 89kts
25-Jul-19 12:43 34.291009 -119.856503 76 3995ft 99kts
25-Jul-19 12:44 34.271996 -119.831102 136 4002ft 107kts
25-Jul-19 12:50 34.267215 -119.845287 318 4004ft 89kts
25-Jul-19 12:51 34.286536 -119.863468 358 3988ft 91kts
25-Jul-19 12:52 34.277390 -119.839663 138 4011ft 106kts
25-Jul-19 12:53 34.264290 -119.810594 92 4015ft 103kts
25-Jul-19 12:54 34.261307 -119.775874 93 4004ft 104kts
25-Jul-19 12:55 34.258788 -119.741392 87 4040ft 102kts
25-Jul-19 12:56 34.256222 -119.706312 89 4000ft 104kts
25-Jul-19 12:57 34.254415 -119.671368 95 3997ft 105kts
25-Jul-19 12:58 34.251486 -119.636527 90 4012ft 102kts
25-Jul-19 12:59 34.249107 -119.602192 90 4045ft 102kts
25-Jul-19 13:00 34.246608 -119.567832 89 4008ft 106kts
25-Jul-19 13:01 34.244518 -119.532848 94 3919ft 99kts
25-Jul-19 13:02 34.256040 -119.519140 327 3751ft 86kts
25-Jul-19 13:03 34.279092 -119.517333 350 3979ft 82kts
25-Jul-19 13:04 34.302844 -119.521493 312 4052ft 93kts
25-Jul-19 13:05 34.312993 -119.548119 291 3667ft 87kts
25-Jul-19 13:06 34.324249 -119.574638 304 2747ft 89kts
25-Jul-19 13:07 34.339088 -119.599899 300 2010ft 94kts
25-Jul-19 13:08 34.353715 -119.625292 298 2123ft 87kts
25-Jul-19 13:09 34.366320 -119.651555 289 2109ft 93kts
25-Jul-19 13:10 34.375989 -119.680562 286 2097ft 90kts
25-Jul-19 13:11 34.384357 -119.709364 284 2103ft 91kts
25-Jul-19 13:12 34.391808 -119.734650 288 1505ft 75kts
25-Jul-19 13:13 34.406303 -119.753651 325 1138ft 79kts
25-Jul-19 13:14 34.422858 -119.770801 324 1066ft 75kts
25-Jul-19 13:15 34.428650 -119.797193 267 828ft 88kts
25-Jul-19 13:16 34.428208 -119.823538 263 248ft 71kts
25-Jul-19 13:17 34.427770 -119.840756 261 13ft 25kts
25-Jul-19 13:18 34.428215 -119.846243 2 13ft 4kts

Navigation Log

Ident Type
Flight plan parsing failed, navigation log unavailable